sensor_id;sensor_type;location;lat;lon;timestamp;pressure;altitude;pressure_sealevel;temperature;humidity
58534;BME280;44109;52.398;7.024;2024-02-15T00:01:45;101401.69;;;13.62;100.00
58534;BME280;44109;52.398;7.024;2024-02-15T00:04:13;101405.00;;;13.71;100.00
58534;BME280;44109;52.398;7.024;2024-02-15T00:06:40;101400.28;;;13.75;100.00
58534;BME280;44109;52.398;7.024;2024-02-15T00:09:08;101405.81;;;13.71;100.00
58534;BME280;44109;52.398;7.024;2024-02-15T00:11:36;101405.53;;;13.80;100.00
58534;BME280;44109;52.398;7.024;2024-02-15T00:14:05;101398.88;;;13.58;100.00
58534;BME280;44109;52.398;7.024;2024-02-15T00:16:33;101406.53;;;13.65;100.00
58534;BME280;44109;52.398;7.024;2024-02-15T00:19:02;101410.56;;;13.67;100.00
58534;BME280;44109;52.398;7.024;2024-02-15T00:21:30;101408.38;;;13.54;100.00
58534;BME280;44109;52.398;7.024;2024-02-15T00:23:57;101412.09;;;13.65;100.00
58534;BME280;44109;52.398;7.024;2024-02-15T00:26:26;101406.47;;;13.35;100.00
58534;BME280;44109;52.398;7.024;2024-02-15T00:28:53;101405.66;;;13.61;100.00
58534;BME280;44109;52.398;7.024;2024-02-15T00:31:21;101413.03;;;13.46;100.00
58534;BME280;44109;52.398;7.024;2024-02-15T00:33:49;101412.53;;;13.67;100.00
58534;BME280;44109;52.398;7.024;2024-02-15T00:36:18;101408.56;;;13.68;100.00
58534;BME280;44109;52.398;7.024;2024-02-15T00:38:45;101405.66;;;13.61;100.00
58534;BME280;44109;52.398;7.024;2024-02-15T00:41:16;101411.97;;;13.58;100.00
58534;BME280;44109;52.398;7.024;2024-02-15T00:43:46;101412.09;;;13.65;100.00
58534;BME280;44109;52.398;7.024;2024-02-15T00:46:14;101406.91;;;13.63;100.00
58534;BME280;44109;52.398;7.024;2024-02-15T00:48:43;101405.59;;;13.57;100.00
58534;BME280;44109;52.398;7.024;2024-02-15T00:51:11;101407.44;;;13.73;100.00
58534;BME280;44109;52.398;7.024;2024-02-15T00:53:40;101407.38;;;13.69;100.00
58534;BME280;44109;52.398;7.024;2024-02-15T00:56:07;101414.78;;;13.58;100.00
58534;BME280;44109;52.398;7.024;2024-02-15T00:58:35;101413.69;;;13.66;100.00
58534;BME280;44109;52.398;7.024;2024-02-15T01:01:03;101415.69;;;13.65;100.00
58534;BME280;44109;52.398;7.024;2024-02-15T01:03:32;101424.31;;;13.57;100.00
58534;BME280;44109;52.398;7.024;2024-02-15T01:06:00;101426.91;;;13.69;100.00
58534;BME280;44109;52.398;7.024;2024-02-15T01:08:28;101416.06;;;13.64;100.00
58534;BME280;44109;52.398;7.024;2024-02-15T01:10:57;101415.47;;;13.78;100.00
58534;BME280;44109;52.398;7.024;2024-02-15T01:13:25;101424.97;;;13.73;100.00
58534;BME280;44109;52.398;7.024;2024-02-15T01:15:52;101419.47;;;13.80;100.00
58534;BME280;44109;52.398;7.024;2024-02-15T01:18:22;101422.06;;;13.66;100.00
58534;BME280;44109;52.398;7.024;2024-02-15T01:20:49;101422.06;;;13.66;100.00
58534;BME280;44109;52.398;7.024;2024-02-15T01:23:18;101425.72;;;13.70;100.00
58534;BME280;44109;52.398;7.024;2024-02-15T01:25:46;101421.00;;;13.74;100.00
58534;BME280;44109;52.398;7.024;2024-02-15T01:28:15;101422.88;;;13.66;100.00
58534;BME280;44109;52.398;7.024;2024-02-15T01:30:42;101418.75;;;13.57;100.00
58534;BME280;44109;52.398;7.024;2024-02-15T01:33:12;101423.72;;;13.70;100.00
58534;BME280;44109;52.398;7.024;2024-02-15T01:35:40;101418.41;;;13.62;100.00
58534;BME280;44109;52.398;7.024;2024-02-15T01:38:07;101421.19;;;13.58;100.00
58534;BME280;44109;52.398;7.024;2024-02-15T01:40:35;101421.59;;;13.60;100.00
58534;BME280;44109;52.398;7.024;2024-02-15T01:43:03;101414.34;;;13.56;100.00
58534;BME280;44109;52.398;7.024;2024-02-15T01:45:33;101416.34;;;13.55;100.00
58534;BME280;44109;52.398;7.024;2024-02-15T01:48:01;101415.41;;;13.74;100.00
58534;BME280;44109;52.398;7.024;2024-02-15T01:50:31;101420.00;;;13.59;100.00
58534;BME280;44109;52.398;7.024;2024-02-15T01:53:01;101399.34;;;13.64;100.00
58534;BME280;44109;52.398;7.024;2024-02-15T01:55:34;101415.28;;;13.63;100.00
58534;BME280;44109;52.398;7.024;2024-02-15T01:58:03;101411.16;;;13.54;100.00
58534;BME280;44109;52.398;7.024;2024-02-15T02:00:33;101411.78;;;13.70;100.00
58534;BME280;44109;52.398;7.024;2024-02-15T02:03:02;101416.06;;;13.64;100.00
58534;BME280;44109;52.398;7.024;2024-02-15T02:05:32;101421.78;;;13.48;100.00
58534;BME280;44109;52.398;7.024;2024-02-15T02:07:59;101418.09;;;13.67;100.00
58534;BME280;44109;52.398;7.024;2024-02-15T02:10:30;101416.03;;;13.60;100.00
58534;BME280;44109;52.398;7.024;2024-02-15T02:12:59;101425.31;;;13.68;100.00
58534;BME280;44109;52.398;7.024;2024-02-15T02:15:28;101405.34;;;13.66;100.00
58534;BME280;44109;52.398;7.024;2024-02-15T02:18:00;101387.88;;;13.42;100.00
58534;BME280;44109;52.398;7.024;2024-02-15T02:20:28;101399.50;;;13.75;100.00
58534;BME280;44109;52.398;7.024;2024-02-15T02:23:03;101400.22;;;13.71;100.00
58534;BME280;44109;52.398;7.024;2024-02-15T02:25:35;101401.38;;;13.67;100.00
58534;BME280;44109;52.398;7.024;2024-02-15T02:28:03;101406.91;;;13.63;100.00
58534;BME280;44109;52.398;7.024;2024-02-15T02:30:32;101400.31;;;13.49;100.00
58534;BME280;44109;52.398;7.024;2024-02-15T02:33:01;101395.25;;;13.58;100.00
58534;BME280;44109;52.398;7.024;2024-02-15T02:35:32;101396.97;;;13.66;100.00
58534;BME280;44109;52.398;7.024;2024-02-15T02:38:00;101393.31;;;13.62;100.00
58534;BME280;44109;52.398;7.024;2024-02-15T02:40:30;101388.88;;;13.57;100.00
58534;BME280;44109;52.398;7.024;2024-02-15T02:42:59;101401.06;;;13.72;100.00
58534;BME280;44109;52.398;7.024;2024-02-15T02:45:26;101394.19;;;13.66;100.00
58534;BME280;44109;52.398;7.024;2024-02-15T02:47:54;101392.84;;;13.56;100.00
58534;BME280;44109;52.398;7.024;2024-02-15T02:50:22;101375.34;;;13.56;100.00
58534;BME280;44109;52.398;7.024;2024-02-15T02:52:51;101390.41;;;13.51;100.00
58534;BME280;44109;52.398;7.024;2024-02-15T02:55:19;101360.47;;;13.48;100.00
58534;BME280;44109;52.398;7.024;2024-02-15T02:57:46;101396.28;;;13.73;100.00
58534;BME280;44109;52.398;7.024;2024-02-15T03:00:16;101395.50;;;13.72;100.00
58534;BME280;44109;52.398;7.024;2024-02-15T03:02:46;101390.78;;;13.80;100.00
58534;BME280;44109;52.398;7.024;2024-02-15T03:05:14;101381.75;;;13.60;100.00
58534;BME280;44109;52.398;7.024;2024-02-15T03:07:42;101400.88;;;13.61;100.00
58534;BME280;44109;52.398;7.024;2024-02-15T03:10:10;101397.38;;;13.64;100.00
58534;BME280;44109;52.398;7.024;2024-02-15T03:12:40;101396.38;;;13.80;100.00
58534;BME280;44109;52.398;7.024;2024-02-15T03:15:13;101394.25;;;13.69;100.00
58534;BME280;44109;52.398;7.024;2024-02-15T03:17:46;101391.13;;;13.75;100.00
58534;BME280;44109;52.398;7.024;2024-02-15T03:20:14;101381.28;;;13.84;100.00
58534;BME280;44109;52.398;7.024;2024-02-15T03:22:51;101367.50;;;13.65;100.00
58534;BME280;44109;52.398;7.024;2024-02-15T03:25:19;101374.00;;;13.76;100.00
58534;BME280;44109;52.398;7.024;2024-02-15T03:27:49;101375.97;;;13.72;100.00
58534;BME280;44109;52.398;7.024;2024-02-15T03:30:19;101380.25;;;13.66;100.00
58534;BME280;44109;52.398;7.024;2024-02-15T03:32:48;101388.72;;;13.73;100.00
58534;BME280;44109;52.398;7.024;2024-02-15T03:35:17;101388.91;;;13.87;100.00
58534;BME280;44109;52.398;7.024;2024-02-15T03:37:46;101382.81;;;13.78;100.00
58534;BME280;44109;52.398;7.024;2024-02-15T03:40:17;101380.50;;;13.84;100.00
58534;BME280;44109;52.398;7.024;2024-02-15T03:42:45;101379.44;;;13.65;100.00
58534;BME280;44109;52.398;7.024;2024-02-15T03:45:13;101370.16;;;13.58;100.00
58534;BME280;44109;52.398;7.024;2024-02-15T03:47:40;101377.47;;;13.66;100.00
58534;BME280;44109;52.398;7.024;2024-02-15T03:50:10;101369.94;;;13.70;100.00
58534;BME280;44109;52.398;7.024;2024-02-15T03:52:38;101376.72;;;13.69;100.00
58534;BME280;44109;52.398;7.024;2024-02-15T03:55:07;101380.63;;;13.64;100.00
58534;BME280;44109;52.398;7.024;2024-02-15T03:57:37;101388.00;;;13.50;100.00
58534;BME280;44109;52.398;7.024;2024-02-15T04:00:07;101377.78;;;13.61;100.00
58534;BME280;44109;52.398;7.024;2024-02-15T04:02:37;101384.28;;;13.68;100.00
58534;BME280;44109;52.398;7.024;2024-02-15T04:05:07;101389.00;;;13.64;100.00
58534;BME280;44109;52.398;7.024;2024-02-15T04:07:36;101380.72;;;13.71;100.00
58534;BME280;44109;52.398;7.024;2024-02-15T04:10:05;101387.94;;;13.76;100.00
58534;BME280;44109;52.398;7.024;2024-02-15T04:12:34;101382.69;;;13.67;100.00
58534;BME280;44109;52.398;7.024;2024-02-15T04:15:15;101383.47;;;13.68;100.00
58534;BME280;44109;52.398;7.024;2024-02-15T04:17:44;101385.03;;;13.65;100.00
58534;BME280;44109;52.398;7.024;2024-02-15T04:20:12;101391.78;;;13.64;100.00
58534;BME280;44109;52.398;7.024;2024-02-15T04:22:43;101391.00;;;13.64;100.00
58534;BME280;44109;52.398;7.024;2024-02-15T04:25:13;101395.38;;;13.65;100.00
58534;BME280;44109;52.398;7.024;2024-02-15T04:27:43;101393.50;;;13.73;100.00
58534;BME280;44109;52.398;7.024;2024-02-15T04:30:12;101387.53;;;13.74;100.00
58534;BME280;44109;52.398;7.024;2024-02-15T04:32:41;101387.59;;;13.78;100.00
58534;BME280;44109;52.398;7.024;2024-02-15T04:35:09;101384.88;;;13.55;100.00
58534;BME280;44109;52.398;7.024;2024-02-15T04:37:37;101387.00;;;13.65;100.00
58534;BME280;44109;52.398;7.024;2024-02-15T04:40:08;101378.53;;;13.58;100.00
58534;BME280;44109;52.398;7.024;2024-02-15T04:42:38;101385.03;;;13.65;100.00
58534;BME280;44109;52.398;7.024;2024-02-15T04:45:08;101386.78;;;13.77;100.00
58534;BME280;44109;52.398;7.024;2024-02-15T04:47:39;101385.22;;;13.80;100.00
58534;BME280;44109;52.398;7.024;2024-02-15T04:50:08;101380.72;;;13.71;100.00
58534;BME280;44109;52.398;7.024;2024-02-15T04:52:36;101370.91;;;13.81;100.00
58534;BME280;44109;52.398;7.024;2024-02-15T04:55:04;101376.50;;;13.81;100.00
58534;BME280;44109;52.398;7.024;2024-02-15T04:57:33;101366.84;;;13.75;100.00
58534;BME280;44109;52.398;7.024;2024-02-15T05:00:03;101363.28;;;13.78;100.00
58534;BME280;44109;52.398;7.024;2024-02-15T05:02:37;101354.63;;;13.57;100.00
58534;BME280;44109;52.398;7.024;2024-02-15T05:05:06;101362.84;;;13.46;100.00
58534;BME280;44109;52.398;7.024;2024-02-15T05:07:34;101358.19;;;13.54;100.00
58534;BME280;44109;52.398;7.024;2024-02-15T05:10:04;101362.59;;;13.55;100.00
58534;BME280;44109;52.398;7.024;2024-02-15T05:12:33;101362.53;;;13.51;100.00
58534;BME280;44109;52.398;7.024;2024-02-15T05:15:01;101364.19;;;13.56;100.00
58534;BME280;44109;52.398;7.024;2024-02-15T05:17:37;101358.28;;;13.61;100.00
58534;BME280;44109;52.398;7.024;2024-02-15T05:20:08;101346.59;;;13.52;100.00
58534;BME280;44109;52.398;7.024;2024-02-15T05:22:39;101333.78;;;13.47;100.00
58534;BME280;44109;52.398;7.024;2024-02-15T05:25:09;101355.22;;;13.43;100.00
58534;BME280;44109;52.398;7.024;2024-02-15T05:27:39;101332.94;;;13.43;100.00
58534;BME280;44109;52.398;7.024;2024-02-15T05:30:09;101343.94;;;13.62;100.00
58534;BME280;44109;52.398;7.024;2024-02-15T05:32:38;101341.88;;;13.56;100.00
58534;BME280;44109;52.398;7.024;2024-02-15T05:35:10;101341.47;;;13.27;100.00
58534;BME280;44109;52.398;7.024;2024-02-15T05:37:38;101342.53;;;13.45;100.00
58534;BME280;44109;52.398;7.024;2024-02-15T05:40:07;101346.19;;;13.50;100.00
58534;BME280;44109;52.398;7.024;2024-02-15T05:42:43;101331.47;;;13.53;100.00
58534;BME280;44109;52.398;7.024;2024-02-15T05:45:29;101313.25;;;13.59;100.00
58534;BME280;44109;52.398;7.024;2024-02-15T05:47:58;101306.09;;;13.61;100.00
58534;BME280;44109;52.398;7.024;2024-02-15T05:50:26;101309.69;;;13.58;100.00
58534;BME280;44109;52.398;7.024;2024-02-15T05:52:56;101294.09;;;13.54;100.00
58534;BME280;44109;52.398;7.024;2024-02-15T05:55:25;101299.69;;;13.57;100.00
58534;BME280;44109;52.398;7.024;2024-02-15T05:57:56;101296.47;;;13.55;100.00
58534;BME280;44109;52.398;7.024;2024-02-15T06:00:24;101290.84;;;13.52;100.00
58534;BME280;44109;52.398;7.024;2024-02-15T06:02:52;101293.22;;;13.50;100.00
58534;BME280;44109;52.398;7.024;2024-02-15T06:05:20;101298.69;;;13.42;100.00
58534;BME280;44109;52.398;7.024;2024-02-15T06:07:48;101291.91;;;13.40;100.00
58534;BME280;44109;52.398;7.024;2024-02-15T06:10:15;101280.94;;;13.24;100.00
58534;BME280;44109;52.398;7.024;2024-02-15T06:12:43;101296.28;;;13.41;100.00
58534;BME280;44109;52.398;7.024;2024-02-15T06:15:12;101300.63;;;13.38;100.00
58534;BME280;44109;52.398;7.024;2024-02-15T06:17:42;101297.09;;;13.41;100.00
58534;BME280;44109;52.398;7.024;2024-02-15T06:20:12;101298.63;;;13.35;100.00
58534;BME280;44109;52.398;7.024;2024-02-15T06:22:43;101311.78;;;13.38;100.00
58534;BME280;44109;52.398;7.024;2024-02-15T06:25:11;101314.03;;;13.29;100.00
58534;BME280;44109;52.398;7.024;2024-02-15T06:27:39;101321.19;;;13.27;100.00
58534;BME280;44109;52.398;7.024;2024-02-15T06:30:09;101324.31;;;13.25;100.00
58534;BME280;44109;52.398;7.024;2024-02-15T06:32:56;101320.34;;;13.26;100.00
58534;BME280;44109;52.398;7.024;2024-02-15T06:35:42;101328.50;;;13.38;100.00
58534;BME280;44109;52.398;7.024;2024-02-15T06:38:27;101327.22;;;13.32;100.00
58534;BME280;44109;52.398;7.024;2024-02-15T06:41:13;101323.50;;;13.51;100.00
58534;BME280;44109;52.398;7.024;2024-02-15T06:43:41;101319.47;;;13.49;100.00
58534;BME280;44109;52.398;7.024;2024-02-15T06:46:09;101320.25;;;13.45;100.00
58534;BME280;44109;52.398;7.024;2024-02-15T06:48:41;101314.75;;;13.53;100.00
58534;BME280;44109;52.398;7.024;2024-02-15T06:51:12;101314.00;;;13.56;100.00
58534;BME280;44109;52.398;7.024;2024-02-15T06:53:41;101297.28;;;13.56;100.00
58534;BME280;44109;52.398;7.024;2024-02-15T06:56:09;101297.00;;;13.64;100.00
58534;BME280;44109;52.398;7.024;2024-02-15T06:58:37;101277.53;;;13.68;100.00
58534;BME280;44109;52.398;7.024;2024-02-15T07:01:06;101281.47;;;13.67;100.00
58534;BME280;44109;52.398;7.024;2024-02-15T07:03:34;101279.19;;;13.76;100.00
58534;BME280;44109;52.398;7.024;2024-02-15T07:06:03;101278.00;;;13.74;100.00
58534;BME280;44109;52.398;7.024;2024-02-15T07:08:31;101269.25;;;13.75;100.00
58534;BME280;44109;52.398;7.024;2024-02-15T07:10:59;101273.72;;;13.83;100.00
58534;BME280;44109;52.398;7.024;2024-02-15T07:13:28;101271.66;;;13.77;100.00
58534;BME280;44109;52.398;7.024;2024-02-15T07:15:55;101286.03;;;13.79;100.00
58534;BME280;44109;52.398;7.024;2024-02-15T07:18:23;101283.97;;;13.72;100.00
58534;BME280;44109;52.398;7.024;2024-02-15T07:20:51;101288.34;;;13.73;100.00
58534;BME280;44109;52.398;7.024;2024-02-15T07:23:21;101289.53;;;13.72;100.00
58534;BME280;44109;52.398;7.024;2024-02-15T07:25:50;101287.56;;;13.76;100.00
58534;BME280;44109;52.398;7.024;2024-02-15T07:28:19;101281.69;;;13.81;100.00
58534;BME280;44109;52.398;7.024;2024-02-15T07:30:47;101276.97;;;13.85;100.00
58534;BME280;44109;52.398;7.024;2024-02-15T07:33:17;101275.41;;;13.91;100.00
58534;BME280;44109;52.398;7.024;2024-02-15T07:35:46;101274.47;;;13.80;100.00
58534;BME280;44109;52.398;7.024;2024-02-15T07:38:17;101290.91;;;13.89;100.00
58534;BME280;44109;52.398;7.024;2024-02-15T07:40:46;101285.97;;;13.75;100.00
58534;BME280;44109;52.398;7.024;2024-02-15T07:43:13;101280.16;;;13.87;100.00
58534;BME280;44109;52.398;7.024;2024-02-15T07:45:41;101276.16;;;13.88;100.00
58534;BME280;44109;52.398;7.024;2024-02-15T07:48:09;101295.34;;;13.93;100.00
58534;BME280;44109;52.398;7.024;2024-02-15T07:50:37;101296.63;;;14.00;100.00
58534;BME280;44109;52.398;7.024;2024-02-15T07:53:08;101295.44;;;14.01;100.00
58534;BME280;44109;52.398;7.024;2024-02-15T07:55:36;101295.41;;;13.97;100.00
58534;BME280;44109;52.398;7.024;2024-02-15T07:58:05;101293.00;;;13.95;100.00
58534;BME280;44109;52.398;7.024;2024-02-15T08:00:32;101274.66;;;13.94;100.00
58534;BME280;44109;52.398;7.024;2024-02-15T08:03:01;101285.13;;;14.05;100.00
58534;BME280;44109;52.398;7.024;2024-02-15T08:05:29;101285.03;;;13.98;100.00
58534;BME280;44109;52.398;7.024;2024-02-15T08:07:56;101280.31;;;14.02;100.00
58534;BME280;44109;52.398;7.024;2024-02-15T08:10:24;101284.78;;;14.10;100.00
58534;BME280;44109;52.398;7.024;2024-02-15T08:12:54;101279.56;;;14.05;100.00
58534;BME280;44109;52.398;7.024;2024-02-15T08:15:25;101284.28;;;14.01;100.00
58534;BME280;44109;52.398;7.024;2024-02-15T08:17:54;101280.75;;;14.04;100.00
58534;BME280;44109;52.398;7.024;2024-02-15T08:20:22;101288.13;;;13.89;100.00
58534;BME280;44109;52.398;7.024;2024-02-15T08:22:57;101268.59;;;13.85;100.00
58534;BME280;44109;52.398;7.024;2024-02-15T08:25:25;101267.84;;;13.92;100.00
58534;BME280;44109;52.398;7.024;2024-02-15T08:27:53;101284.03;;;13.79;100.00
58534;BME280;44109;52.398;7.024;2024-02-15T08:30:20;101281.97;;;13.73;100.00
58534;BME280;44109;52.398;7.024;2024-02-15T08:32:49;101283.13;;;13.71;100.00
58534;BME280;44109;52.398;7.024;2024-02-15T08:35:19;101290.06;;;13.81;100.00
58534;BME280;44109;52.398;7.024;2024-02-15T08:37:47;101292.22;;;13.65;100.00
58534;BME280;44109;52.398;7.024;2024-02-15T08:40:17;101284.75;;;13.73;100.00
58534;BME280;44109;52.398;7.024;2024-02-15T08:42:50;101283.66;;;13.81;100.00
58534;BME280;44109;52.398;7.024;2024-02-15T08:45:18;101301.31;;;13.58;100.00
58534;BME280;44109;52.398;7.024;2024-02-15T08:47:46;101301.09;;;13.74;100.00
58534;BME280;44109;52.398;7.024;2024-02-15T08:50:17;101312.59;;;13.69;100.00
58534;BME280;44109;52.398;7.024;2024-02-15T08:52:45;101312.03;;;13.56;100.00
58534;BME280;44109;52.398;7.024;2024-02-15T08:55:13;101307.69;;;13.59;100.00
58534;BME280;44109;52.398;7.024;2024-02-15T08:57:41;101311.63;;;13.58;100.00
58534;BME280;44109;52.398;7.024;2024-02-15T09:00:11;101288.91;;;13.56;100.00
58534;BME280;44109;52.398;7.024;2024-02-15T09:02:42;101271.97;;;13.68;100.00
58534;BME280;44109;52.398;7.024;2024-02-15T09:05:10;101250.22;;;13.84;100.00
58534;BME280;44109;52.398;7.024;2024-02-15T09:07:42;101227.16;;;13.87;100.00
58534;BME280;44109;52.398;7.024;2024-02-15T09:10:10;101233.50;;;13.84;100.00
58534;BME280;44109;52.398;7.024;2024-02-15T09:12:39;101252.63;;;13.52;100.00
58534;BME280;44109;52.398;7.024;2024-02-15T09:15:08;101252.50;;;13.75;100.00
58534;BME280;44109;52.398;7.024;2024-02-15T09:17:37;101238.56;;;13.75;100.00
58534;BME280;44109;52.398;7.024;2024-02-15T09:20:07;101228.41;;;13.56;100.00
58534;BME280;44109;52.398;7.024;2024-02-15T09:22:42;101230.66;;;13.77;100.00
58534;BME280;44109;52.398;7.024;2024-02-15T09:25:12;101245.41;;;13.48;100.00
58534;BME280;44109;52.398;7.024;2024-02-15T09:27:40;101265.19;;;13.39;100.00
58534;BME280;44109;52.398;7.024;2024-02-15T09:30:09;101273.66;;;13.19;100.00
58534;BME280;44109;52.398;7.024;2024-02-15T09:32:38;101251.09;;;13.55;100.00
58534;BME280;44109;52.398;7.024;2024-02-15T09:35:08;101239.38;;;13.76;100.00
58534;BME280;44109;52.398;7.024;2024-02-15T09:37:43;101255.97;;;13.65;100.00
58534;BME280;44109;52.398;7.024;2024-02-15T09:40:16;101227.13;;;13.50;100.00
58534;BME280;44109;52.398;7.024;2024-02-15T09:42:46;101246.88;;;13.71;100.00
58534;BME280;44109;52.398;7.024;2024-02-15T09:45:16;101257.69;;;13.73;100.00
58534;BME280;44109;52.398;7.024;2024-02-15T09:47:44;101261.44;;;13.88;100.00
58534;BME280;44109;52.398;7.024;2024-02-15T09:50:14;101261.59;;;13.68;100.00
58534;BME280;44109;52.398;7.024;2024-02-15T09:52:45;101262.06;;;13.74;100.00
58534;BME280;44109;52.398;7.024;2024-02-15T09:55:17;101258.88;;;13.72;100.00
58534;BME280;44109;52.398;7.024;2024-02-15T09:57:46;101276.34;;;13.69;100.00
58534;BME280;44109;52.398;7.024;2024-02-15T10:00:14;101285.50;;;13.69;100.00
58534;BME280;44109;52.398;7.024;2024-02-15T10:02:46;101269.34;;;13.82;100.00
58534;BME280;44109;52.398;7.024;2024-02-15T10:05:15;101271.28;;;13.78;100.00
58534;BME280;44109;52.398;7.024;2024-02-15T10:07:45;101273.72;;;13.83;100.00
58534;BME280;44109;52.398;7.024;2024-02-15T10:10:17;101271.97;;;13.68;100.00
58534;BME280;44109;52.398;7.024;2024-02-15T10:12:46;101279.81;;;13.92;100.00
58534;BME280;44109;52.398;7.024;2024-02-15T10:15:27;101279.50;;;14.01;100.00
58534;BME280;44109;52.398;7.024;2024-02-15T10:17:57;101283.56;;;14.07;100.00
58534;BME280;44109;52.398;7.024;2024-02-15T10:20:25;101282.41;;;14.12;100.00
58534;BME280;44109;52.398;7.024;2024-02-15T10:23:09;101280.50;;;14.19;100.00
58534;BME280;44109;52.398;7.024;2024-02-15T10:25:38;101279.63;;;14.12;100.00
58534;BME280;44109;52.398;7.024;2024-02-15T10:28:07;101283.44;;;13.96;100.00
58534;BME280;44109;52.398;7.024;2024-02-15T10:30:36;101278.72;;;14.01;100.00
58534;BME280;44109;52.398;7.024;2024-02-15T10:33:09;101280.91;;;14.18;100.00
58534;BME280;44109;52.398;7.024;2024-02-15T10:35:37;101282.97;;;14.28;100.00
58534;BME280;44109;52.398;7.024;2024-02-15T10:38:07;101277.91;;;14.00;100.00
58534;BME280;44109;52.398;7.024;2024-02-15T10:40:36;101292.25;;;14.02;100.00
58534;BME280;44109;52.398;7.024;2024-02-15T10:43:05;101288.31;;;14.07;100.00
58534;BME280;44109;52.398;7.024;2024-02-15T10:45:35;101280.31;;;14.02;100.00
58534;BME280;44109;52.398;7.024;2024-02-15T10:48:06;101273.19;;;14.08;100.00
58534;BME280;44109;52.398;7.024;2024-02-15T10:50:34;101270.53;;;14.18;100.00
58534;BME280;44109;52.398;7.024;2024-02-15T10:53:10;101276.50;;;14.20;100.00
58534;BME280;44109;52.398;7.024;2024-02-15T10:55:53;101268.34;;;14.01;100.00
58534;BME280;44109;52.398;7.024;2024-02-15T10:58:31;101263.97;;;14.00;100.00
58534;BME280;44109;52.398;7.024;2024-02-15T11:01:04;101263.84;;;14.30;100.00
58534;BME280;44109;52.398;7.024;2024-02-15T11:03:36;101261.31;;;14.14;100.00
58534;BME280;44109;52.398;7.024;2024-02-15T11:06:09;101269.28;;;14.16;100.00
58534;BME280;44109;52.398;7.024;2024-02-15T11:08:39;101275.56;;;14.06;100.00
58534;BME280;44109;52.398;7.024;2024-02-15T11:11:08;101273.47;;;13.95;100.00
58534;BME280;44109;52.398;7.024;2024-02-15T11:13:38;101269.88;;;13.95;100.00
58534;BME280;44109;52.398;7.024;2024-02-15T11:16:08;101265.56;;;14.01;100.00
58534;BME280;44109;52.398;7.024;2024-02-15T11:18:44;101266.16;;;14.21;100.00
58534;BME280;44109;52.398;7.024;2024-02-15T11:21:15;101257.28;;;14.12;100.00
58534;BME280;44109;52.398;7.024;2024-02-15T11:23:46;101264.63;;;14.27;100.00
58534;BME280;44109;52.398;7.024;2024-02-15T11:26:42;101259.09;;;14.31;100.00
58534;BME280;44109;52.398;7.024;2024-02-15T11:29:47;101259.19;;;14.41;100.00
58534;BME280;44109;52.398;7.024;2024-02-15T11:32:39;101254.66;;;14.26;100.00
58534;BME280;44109;52.398;7.024;2024-02-15T11:35:11;101259.25;;;14.08;100.00
58534;BME280;44109;52.398;7.024;2024-02-15T11:37:56;101239.66;;;14.01;100.00
58534;BME280;44109;52.398;7.024;2024-02-15T11:41:00;101255.63;;;14.04;100.00
58534;BME280;44109;52.398;7.024;2024-02-15T11:43:49;101248.78;;;13.98;100.00
58534;BME280;44109;52.398;7.024;2024-02-15T11:46:23;101237.72;;;14.05;100.00
58534;BME280;44109;52.398;7.024;2024-02-15T11:48:53;101249.41;;;14.21;100.00
58534;BME280;44109;52.398;7.024;2024-02-15T11:51:29;101242.78;;;14.36;100.00
58534;BME280;44109;52.398;7.024;2024-02-15T11:54:01;101241.09;;;14.25;100.00
58534;BME280;44109;52.398;7.024;2024-02-15T11:56:48;101236.66;;;14.20;100.00
58534;BME280;44109;52.398;7.024;2024-02-15T11:59:40;101234.97;;;14.08;100.00
58534;BME280;44109;52.398;7.024;2024-02-15T12:02:40;101232.75;;;14.28;100.00
58534;BME280;44109;52.398;7.024;2024-02-15T12:05:24;101226.59;;;14.53;100.00
58534;BME280;44109;52.398;7.024;2024-02-15T12:08:10;101225.94;;;14.70;100.00
58534;BME280;44109;52.398;7.024;2024-02-15T12:10:58;101215.53;;;14.63;100.00
58534;BME280;44109;52.398;7.024;2024-02-15T12:13:49;101221.94;;;14.67;100.00
58534;BME280;44109;52.398;7.024;2024-02-15T12:16:35;101217.72;;;14.91;100.00
58534;BME280;44109;52.398;7.024;2024-02-15T12:19:20;101214.56;;;14.96;100.00
58534;BME280;44109;52.398;7.024;2024-02-15T12:21:50;101217.28;;;14.89;100.00
58534;BME280;44109;52.398;7.024;2024-02-15T12:24:18;101211.75;;;14.96;100.00
58534;BME280;44109;52.398;7.024;2024-02-15T12:26:48;101214.50;;;14.86;100.00
58534;BME280;44109;52.398;7.024;2024-02-15T12:29:18;101208.44;;;14.77;100.00
58534;BME280;44109;52.398;7.024;2024-02-15T12:31:46;101214.16;;;14.94;100.00
58534;BME280;44109;52.398;7.024;2024-02-15T12:34:15;101208.91;;;14.89;100.00
58534;BME280;44109;52.398;7.024;2024-02-15T12:36:50;101208.47;;;14.84;100.00
58534;BME280;44109;52.398;7.024;2024-02-15T12:39:24;101205.81;;;15.02;100.00
58534;BME280;44109;52.398;7.024;2024-02-15T12:41:54;101198.97;;;14.92;100.00
58534;BME280;44109;52.398;7.024;2024-02-15T12:44:23;101192.16;;;14.89;100.00
58534;BME280;44109;52.398;7.024;2024-02-15T12:46:56;101191.50;;;15.14;100.00
58534;BME280;44109;52.398;7.024;2024-02-15T12:49:29;101190.91;;;14.76;100.00
58534;BME280;44109;52.398;7.024;2024-02-15T12:52:32;101196.22;;;15.03;100.00
58534;BME280;44109;52.398;7.024;2024-02-15T12:55:11;101204.69;;;15.20;100.00
58534;BME280;44109;52.398;7.024;2024-02-15T12:57:43;101190.69;;;15.13;100.00
58534;BME280;44109;52.398;7.024;2024-02-15T13:00:18;101193.16;;;15.22;100.00